Harrisonburg, VA

6:30 PM EDT on August 24, 2016 (GMT -0400)
Urban Exchange | | Change Station

Elev 1341 ft 38.45 °N, 78.87 °W | Updated 6 minutes ago

Clear
Clear
88.9 °F
Feels Like 91 °F
N
1.2
Wind Variable Wind from NW
Gusts 3.7 mph

Today
High -- | Low -- °F
--% Chance of Precip.
Yesterday
High -- | Low -- °F
Precip. -- in
Pressure 30.20 in
Visibility 10.0 miles
Clouds Clear
Heat Index 91 °F
Dew Point 66 °F
Humidity 46%
Rainfall 0.01 in
Snow Depth Not available.
6:38 AM 7:56 PM
Waning Gibbous, 52% visible
METAR KSHD 242215Z AUTO 16007KT 10SM CLR 27/19 A3020 RMK AO2 T02710193
Pressure 30.20 in
Visibility 10.0 miles
Clouds Clear
Heat Index 91 °F
Dew Point 66 °F
Humidity 46%
Rainfall 0.01 in
Snow Depth Not available.
6:38 AM 7:56 PM
Waning Gibbous, 52% visible
METAR KSHD 242215Z AUTO 16007KT 10SM CLR 27/19 A3020 RMK AO2 T02710193

10-Day Weather Forecast

Almanac

Astronomy

Aug. 24, 2016 Rise Set
Actual Time
Civil Twilight
Nautical Twilight
Astronomical Twilight
Moon
Length of Visible Light
Length of Day
Tomorrow will be .
, % of the Moon is Illuminated

Today's Extremes

State Highs State Lows

Community

WunderPhotos

Upload Photos

1,934,728 photos uploaded!

WunderBlog® & News

Nearby

Air Quality

  Air Quality AQ Index Pollutant
Not available.

Snow Depth

Station Depth Elevation

Earthquake Activity

City Distance Mag. Time & Date
Minimum magnitude displayed is 2.5.

Coastal Water Temperatures

Place Temperature

Stations

Nearby Weather Stations

Station Location Temp. Windchill Dew Point Humidity Wind Precip. Elev Updated Type
                   

Watches & Warnings

There are currently no watches in effect.